sensor_id;sensor_type;location;lat;lon;timestamp;pressure;altitude;pressure_sealevel;temperature;humidity
42761;BME280;31672;47.638;19.026;2024-02-28T00:02:40;100060.81;;;7.77;100.00
42761;BME280;31672;47.638;19.026;2024-02-28T00:07:44;100066.31;;;7.84;100.00
42761;BME280;31672;47.638;19.026;2024-02-28T00:12:49;100067.69;;;7.88;100.00
42761;BME280;31672;47.638;19.026;2024-02-28T00:17:54;100075.16;;;7.93;100.00
42761;BME280;31672;47.638;19.026;2024-02-28T00:22:58;100074.84;;;7.96;100.00
42761;BME280;31672;47.638;19.026;2024-02-28T00:28:02;100059.50;;;7.99;100.00
42761;BME280;31672;47.638;19.026;2024-02-28T00:33:05;100073.09;;;8.04;100.00
42761;BME280;31672;47.638;19.026;2024-02-28T00:38:09;100073.78;;;8.07;100.00
42761;BME280;31672;47.638;19.026;2024-02-28T00:43:12;100063.03;;;8.08;100.00
42761;BME280;31672;47.638;19.026;2024-02-28T00:48:16;100066.38;;;8.10;100.00
42761;BME280;31672;47.638;19.026;2024-02-28T00:53:20;100063.38;;;8.13;100.00
42761;BME280;31672;47.638;19.026;2024-02-28T00:58:26;100062.56;;;8.13;100.00
42761;BME280;31672;47.638;19.026;2024-02-28T01:03:31;100062.78;;;8.19;100.00
42761;BME280;31672;47.638;19.026;2024-02-28T01:08:34;100064.59;;;8.19;100.00
42761;BME280;31672;47.638;19.026;2024-02-28T01:13:38;100061.41;;;8.15;100.00
42761;BME280;31672;47.638;19.026;2024-02-28T01:18:42;100072.06;;;8.23;100.00
42761;BME280;31672;47.638;19.026;2024-02-28T01:23:46;100080.19;;;8.22;100.00
42761;BME280;31672;47.638;19.026;2024-02-28T01:28:50;100078.03;;;8.25;100.00
42761;BME280;31672;47.638;19.026;2024-02-28T01:33:53;100087.63;;;8.26;100.00
42761;BME280;31672;47.638;19.026;2024-02-28T01:38:59;100086.13;;;8.24;100.00
42761;BME280;31672;47.638;19.026;2024-02-28T01:44:02;100082.81;;;8.22;100.00
42761;BME280;31672;47.638;19.026;2024-02-28T01:49:06;100089.91;;;8.21;100.00
42761;BME280;31672;47.638;19.026;2024-02-28T01:54:10;100089.41;;;8.18;100.00
42761;BME280;31672;47.638;19.026;2024-02-28T01:59:15;100083.56;;;8.14;100.00
42761;BME280;31672;47.638;19.026;2024-02-28T02:04:20;100086.09;;;8.16;100.00
42761;BME280;31672;47.638;19.026;2024-02-28T02:09:24;100093.78;;;8.09;100.00
42761;BME280;31672;47.638;19.026;2024-02-28T02:14:28;100094.41;;;8.03;100.00
42761;BME280;31672;47.638;19.026;2024-02-28T02:19:32;100106.31;;;7.99;100.00
42761;BME280;31672;47.638;19.026;2024-02-28T02:24:36;100111.38;;;7.92;100.00
42761;BME280;31672;47.638;19.026;2024-02-28T02:29:39;100111.16;;;7.86;100.00
42761;BME280;31672;47.638;19.026;2024-02-28T02:34:43;100120.81;;;7.77;100.00
42761;BME280;31672;47.638;19.026;2024-02-28T02:39:47;100123.41;;;7.69;100.00
42761;BME280;31672;47.638;19.026;2024-02-28T02:44:50;100131.94;;;7.63;100.00
42761;BME280;31672;47.638;19.026;2024-02-28T02:49:53;100128.09;;;7.57;100.00
42761;BME280;31672;47.638;19.026;2024-02-28T02:54:57;100136.16;;;7.56;100.00
42761;BME280;31672;47.638;19.026;2024-02-28T03:00:00;100133.81;;;7.53;100.00
42761;BME280;31672;47.638;19.026;2024-02-28T03:05:08;100138.44;;;7.50;100.00
42761;BME280;31672;47.638;19.026;2024-02-28T03:10:11;100142.03;;;7.49;100.00
42761;BME280;31672;47.638;19.026;2024-02-28T03:15:15;100135.91;;;7.49;100.00
42761;BME280;31672;47.638;19.026;2024-02-28T03:20:19;100137.59;;;7.50;100.00
42761;BME280;31672;47.638;19.026;2024-02-28T03:25:23;100145.22;;;7.53;100.00
42761;BME280;31672;47.638;19.026;2024-02-28T03:30:27;100150.22;;;7.56;100.00
42761;BME280;31672;47.638;19.026;2024-02-28T03:35:31;100155.34;;;7.58;100.00
42761;BME280;31672;47.638;19.026;2024-02-28T03:40:35;100161.47;;;7.58;100.00
42761;BME280;31672;47.638;19.026;2024-02-28T03:45:39;100159.66;;;7.59;100.00
42761;BME280;31672;47.638;19.026;2024-02-28T03:50:42;100165.63;;;7.61;100.00
42761;BME280;31672;47.638;19.026;2024-02-28T03:55:46;100170.31;;;7.67;100.00
42761;BME280;31672;47.638;19.026;2024-02-28T04:00:49;100170.19;;;7.68;100.00
42761;BME280;31672;47.638;19.026;2024-02-28T04:05:53;100171.69;;;7.71;100.00
42761;BME280;31672;47.638;19.026;2024-02-28T04:10:56;100173.34;;;7.72;100.00
42761;BME280;31672;47.638;19.026;2024-02-28T04:16:01;100178.47;;;7.73;100.00
42761;BME280;31672;47.638;19.026;2024-02-28T04:21:06;100171.53;;;7.72;100.00
42761;BME280;31672;47.638;19.026;2024-02-28T04:26:10;100167.91;;;7.73;100.00
42761;BME280;31672;47.638;19.026;2024-02-28T04:31:13;100159.59;;;7.68;100.00
42761;BME280;31672;47.638;19.026;2024-02-28T04:36:17;100171.91;;;7.77;100.00
42761;BME280;31672;47.638;19.026;2024-02-28T04:41:20;100177.75;;;7.81;100.00
42761;BME280;31672;47.638;19.026;2024-02-28T04:46:23;100176.91;;;7.81;100.00
42761;BME280;31672;47.638;19.026;2024-02-28T04:51:27;100179.94;;;7.86;100.00
42761;BME280;31672;47.638;19.026;2024-02-28T04:56:30;100176.59;;;7.84;100.00
42761;BME280;31672;47.638;19.026;2024-02-28T05:01:34;100180.06;;;7.84;100.00
42761;BME280;31672;47.638;19.026;2024-02-28T05:06:38;100182.44;;;7.87;100.00
42761;BME280;31672;47.638;19.026;2024-02-28T05:11:44;100198.47;;;7.86;100.00
42761;BME280;31672;47.638;19.026;2024-02-28T05:16:47;100195.13;;;7.84;100.00
42761;BME280;31672;47.638;19.026;2024-02-28T05:21:51;100190.81;;;7.83;100.00
42761;BME280;31672;47.638;19.026;2024-02-28T05:26:55;100197.25;;;7.80;100.00
42761;BME280;31672;47.638;19.026;2024-02-28T05:31:58;100202.66;;;7.78;100.00
42761;BME280;31672;47.638;19.026;2024-02-28T05:37:01;100220.19;;;7.79;100.00
42761;BME280;31672;47.638;19.026;2024-02-28T05:42:05;100226.47;;;7.78;100.00
42761;BME280;31672;47.638;19.026;2024-02-28T05:47:08;100233.31;;;7.81;100.00
42761;BME280;31672;47.638;19.026;2024-02-28T05:52:12;100237.88;;;7.79;100.00
42761;BME280;31672;47.638;19.026;2024-02-28T05:57:16;100233.59;;;7.78;100.00
42761;BME280;31672;47.638;19.026;2024-02-28T06:02:20;100255.44;;;7.80;100.00
42761;BME280;31672;47.638;19.026;2024-02-28T06:07:23;100249.19;;;7.81;100.00
42761;BME280;31672;47.638;19.026;2024-02-28T06:12:27;100257.63;;;7.85;100.00
42761;BME280;31672;47.638;19.026;2024-02-28T06:17:31;100257.50;;;7.86;100.00
42761;BME280;31672;47.638;19.026;2024-02-28T06:22:34;100266.78;;;7.90;100.00
42761;BME280;31672;47.638;19.026;2024-02-28T06:27:37;100265.97;;;7.90;100.00
42761;BME280;31672;47.638;19.026;2024-02-28T06:32:41;100275.44;;;7.92;100.00
42761;BME280;31672;47.638;19.026;2024-02-28T06:37:44;100279.56;;;7.95;100.00
42761;BME280;31672;47.638;19.026;2024-02-28T06:42:54;100286.91;;;8.01;100.00
42761;BME280;31672;47.638;19.026;2024-02-28T06:47:58;100283.69;;;8.07;100.00
42761;BME280;31672;47.638;19.026;2024-02-28T06:53:01;100285.72;;;8.13;100.00
42761;BME280;31672;47.638;19.026;2024-02-28T06:58:05;100295.50;;;8.30;100.00
42761;BME280;31672;47.638;19.026;2024-02-28T07:03:09;100297.34;;;8.48;100.00
42761;BME280;31672;47.638;19.026;2024-02-28T07:08:12;100283.88;;;8.59;100.00
42761;BME280;31672;47.638;19.026;2024-02-28T07:13:16;100292.41;;;8.71;100.00
42761;BME280;31672;47.638;19.026;2024-02-28T07:18:20;100277.03;;;8.74;100.00
42761;BME280;31672;47.638;19.026;2024-02-28T07:23:24;100290.88;;;8.86;100.00
42761;BME280;31672;47.638;19.026;2024-02-28T07:28:27;100289.31;;;9.01;100.00
42761;BME280;31672;47.638;19.026;2024-02-28T07:33:31;100302.19;;;9.22;100.00
42761;BME280;31672;47.638;19.026;2024-02-28T07:38:35;100305.25;;;9.35;100.00
42761;BME280;31672;47.638;19.026;2024-02-28T07:43:42;100312.66;;;9.50;100.00
42761;BME280;31672;47.638;19.026;2024-02-28T07:48:46;100312.41;;;9.69;100.00
42761;BME280;31672;47.638;19.026;2024-02-28T07:53:50;100309.00;;;10.43;100.00
42761;BME280;31672;47.638;19.026;2024-02-28T07:58:53;100310.59;;;11.42;100.00
42761;BME280;31672;47.638;19.026;2024-02-28T08:03:57;100310.19;;;11.62;95.80
42761;BME280;31672;47.638;19.026;2024-02-28T08:09:01;100312.88;;;11.45;94.44
42761;BME280;31672;47.638;19.026;2024-02-28T08:14:07;100324.69;;;11.59;91.44
42761;BME280;31672;47.638;19.026;2024-02-28T08:19:11;100315.53;;;11.53;89.18
42761;BME280;31672;47.638;19.026;2024-02-28T08:24:15;100323.38;;;11.47;88.49
42761;BME280;31672;47.638;19.026;2024-02-28T08:29:18;100323.31;;;11.71;88.70
42761;BME280;31672;47.638;19.026;2024-02-28T08:34:22;100328.03;;;12.31;86.63
42761;BME280;31672;47.638;19.026;2024-02-28T08:39:25;100332.19;;;12.80;82.02
42761;BME280;31672;47.638;19.026;2024-02-28T08:44:28;100319.88;;;13.17;82.14
42761;BME280;31672;47.638;19.026;2024-02-28T08:49:32;100312.47;;;13.71;77.46
42761;BME280;31672;47.638;19.026;2024-02-28T08:54:35;100308.78;;;14.23;75.29
42761;BME280;31672;47.638;19.026;2024-02-28T08:59:39;100314.72;;;14.40;70.20
42761;BME280;31672;47.638;19.026;2024-02-28T09:04:43;100315.53;;;14.77;70.98
42761;BME280;31672;47.638;19.026;2024-02-28T09:09:47;100313.03;;;15.24;67.59
42761;BME280;31672;47.638;19.026;2024-02-28T09:14:51;100315.56;;;15.67;66.14
42761;BME280;31672;47.638;19.026;2024-02-28T09:20:01;100315.84;;;15.79;64.31
42761;BME280;31672;47.638;19.026;2024-02-28T09:25:06;100315.97;;;15.36;62.96
42761;BME280;31672;47.638;19.026;2024-02-28T09:30:13;100324.22;;;14.85;62.91
42761;BME280;31672;47.638;19.026;2024-02-28T09:35:16;100319.34;;;14.31;64.60
42761;BME280;31672;47.638;19.026;2024-02-28T09:40:20;100319.47;;;14.23;67.26
42761;BME280;31672;47.638;19.026;2024-02-28T09:45:24;100326.59;;;14.16;65.90
42761;BME280;31672;47.638;19.026;2024-02-28T09:50:28;100328.19;;;14.32;67.08
42761;BME280;31672;47.638;19.026;2024-02-28T09:55:31;100324.38;;;14.56;67.67
42761;BME280;31672;47.638;19.026;2024-02-28T10:00:36;100330.25;;;15.15;66.08
42761;BME280;31672;47.638;19.026;2024-02-28T10:05:40;100315.06;;;15.57;63.75
42761;BME280;31672;47.638;19.026;2024-02-28T10:10:46;100324.69;;;15.45;61.19
42761;BME280;31672;47.638;19.026;2024-02-28T10:15:53;100331.59;;;15.33;60.19
42761;BME280;31672;47.638;19.026;2024-02-28T10:20:57;100327.28;;;15.32;59.30
42761;BME280;31672;47.638;19.026;2024-02-28T10:26:01;100334.84;;;15.84;61.54
42761;BME280;31672;47.638;19.026;2024-02-28T10:31:06;100325.47;;;16.15;57.23
42761;BME280;31672;47.638;19.026;2024-02-28T10:36:11;100329.06;;;16.55;57.12
42761;BME280;31672;47.638;19.026;2024-02-28T10:41:15;100330.63;;;16.97;58.19
42761;BME280;31672;47.638;19.026;2024-02-28T10:46:20;100327.47;;;17.27;57.05
42761;BME280;31672;47.638;19.026;2024-02-28T10:51:40;100319.63;;;17.32;54.89
42761;BME280;31672;47.638;19.026;2024-02-28T10:56:47;100324.78;;;17.40;53.02
42761;BME280;31672;47.638;19.026;2024-02-28T11:01:52;100327.84;;;17.50;53.87
42761;BME280;31672;47.638;19.026;2024-02-28T11:06:56;100326.81;;;17.64;53.74
42761;BME280;31672;47.638;19.026;2024-02-28T11:12:00;100325.97;;;17.64;54.16
42761;BME280;31672;47.638;19.026;2024-02-28T11:17:07;100315.44;;;17.56;53.99
42761;BME280;31672;47.638;19.026;2024-02-28T11:22:11;100318.31;;;17.74;54.59
42761;BME280;31672;47.638;19.026;2024-02-28T11:27:16;100311.47;;;17.85;53.58
42761;BME280;31672;47.638;19.026;2024-02-28T11:32:20;100311.03;;;17.95;51.71
42761;BME280;31672;47.638;19.026;2024-02-28T11:37:23;100306.81;;;18.12;50.71
42761;BME280;31672;47.638;19.026;2024-02-28T11:42:27;100302.53;;;18.36;52.38
42761;BME280;31672;47.638;19.026;2024-02-28T11:47:32;100304.00;;;18.63;51.44
42761;BME280;31672;47.638;19.026;2024-02-28T11:52:37;100290.75;;;18.68;50.37
42761;BME280;31672;47.638;19.026;2024-02-28T11:57:40;100294.38;;;18.81;50.87
42761;BME280;31672;47.638;19.026;2024-02-28T12:02:44;100290.28;;;18.78;49.66
42761;BME280;31672;47.638;19.026;2024-02-28T12:07:48;100275.31;;;18.82;49.91
42761;BME280;31672;47.638;19.026;2024-02-28T12:12:52;100283.94;;;18.91;49.58
42761;BME280;31672;47.638;19.026;2024-02-28T12:17:56;100281.97;;;18.80;49.88
42761;BME280;31672;47.638;19.026;2024-02-28T12:23:01;100281.47;;;18.58;50.27
42761;BME280;31672;47.638;19.026;2024-02-28T12:28:05;100273.59;;;18.31;50.94
42761;BME280;31672;47.638;19.026;2024-02-28T12:33:13;100267.22;;;17.81;51.42
42761;BME280;31672;47.638;19.026;2024-02-28T12:38:17;100272.94;;;17.39;51.97
42761;BME280;31672;47.638;19.026;2024-02-28T12:43:21;100264.31;;;17.04;53.72
42761;BME280;31672;47.638;19.026;2024-02-28T12:48:24;100272.38;;;16.71;54.93
42761;BME280;31672;47.638;19.026;2024-02-28T12:53:27;100273.56;;;16.49;55.59
42761;BME280;31672;47.638;19.026;2024-02-28T12:58:31;100271.06;;;16.41;56.94
42761;BME280;31672;47.638;19.026;2024-02-28T13:03:34;100272.13;;;16.40;57.01
42761;BME280;31672;47.638;19.026;2024-02-28T13:08:37;100270.03;;;16.42;57.82
42761;BME280;31672;47.638;19.026;2024-02-28T13:13:41;100269.00;;;16.43;57.82
42761;BME280;31672;47.638;19.026;2024-02-28T13:18:45;100266.53;;;16.35;57.37
42761;BME280;31672;47.638;19.026;2024-02-28T13:23:49;100266.28;;;16.23;57.81
42761;BME280;31672;47.638;19.026;2024-02-28T13:28:53;100266.91;;;16.25;59.21
42761;BME280;31672;47.638;19.026;2024-02-28T13:33:57;100265.03;;;16.19;59.36
42761;BME280;31672;47.638;19.026;2024-02-28T13:39:00;100260.09;;;16.22;59.86
42761;BME280;31672;47.638;19.026;2024-02-28T13:44:04;100255.78;;;16.21;59.88
42761;BME280;31672;47.638;19.026;2024-02-28T13:49:08;100255.94;;;16.13;60.48
42761;BME280;31672;47.638;19.026;2024-02-28T13:54:11;100252.44;;;16.13;60.56
42761;BME280;31672;47.638;19.026;2024-02-28T13:59:15;100249.75;;;16.13;60.96
42761;BME280;31672;47.638;19.026;2024-02-28T14:04:21;100257.63;;;16.08;60.78
42761;BME280;31672;47.638;19.026;2024-02-28T14:09:24;100253.69;;;16.03;60.81
42761;BME280;31672;47.638;19.026;2024-02-28T14:14:28;100254.03;;;15.94;62.29
42761;BME280;31672;47.638;19.026;2024-02-28T14:19:31;100246.00;;;15.87;62.87
42761;BME280;31672;47.638;19.026;2024-02-28T14:24:35;100255.88;;;15.87;63.57
42761;BME280;31672;47.638;19.026;2024-02-28T14:29:41;100253.63;;;15.84;64.05
42761;BME280;31672;47.638;19.026;2024-02-28T14:34:45;100254.22;;;15.79;64.35
42761;BME280;31672;47.638;19.026;2024-02-28T14:39:49;100261.41;;;15.72;64.47
42761;BME280;31672;47.638;19.026;2024-02-28T14:44:53;100261.75;;;15.62;65.46
42761;BME280;31672;47.638;19.026;2024-02-28T14:49:56;100270.78;;;15.55;65.82
42761;BME280;31672;47.638;19.026;2024-02-28T14:55:00;100264.13;;;15.44;67.04
42761;BME280;31672;47.638;19.026;2024-02-28T15:00:06;100260.34;;;15.32;67.04
42761;BME280;31672;47.638;19.026;2024-02-28T15:05:12;100268.91;;;15.20;67.93
42761;BME280;31672;47.638;19.026;2024-02-28T15:10:16;100278.25;;;15.03;67.96
42761;BME280;31672;47.638;19.026;2024-02-28T15:15:19;100286.00;;;14.91;69.35
42761;BME280;31672;47.638;19.026;2024-02-28T15:20:23;100288.50;;;14.71;70.09
42761;BME280;31672;47.638;19.026;2024-02-28T15:25:26;100287.88;;;14.48;70.87
42761;BME280;31672;47.638;19.026;2024-02-28T15:30:30;100291.16;;;14.29;71.72
42761;BME280;31672;47.638;19.026;2024-02-28T15:35:34;100285.59;;;14.09;72.82
42761;BME280;31672;47.638;19.026;2024-02-28T15:40:42;100298.53;;;13.90;73.91
42761;BME280;31672;47.638;19.026;2024-02-28T15:45:45;100298.09;;;13.72;75.28
42761;BME280;31672;47.638;19.026;2024-02-28T15:50:49;100301.72;;;13.50;76.36
42761;BME280;31672;47.638;19.026;2024-02-28T15:55:54;100307.13;;;13.27;77.44
42761;BME280;31672;47.638;19.026;2024-02-28T16:00:58;100306.97;;;13.05;78.54
42761;BME280;31672;47.638;19.026;2024-02-28T16:06:02;100318.78;;;12.88;79.48
42761;BME280;31672;47.638;19.026;2024-02-28T16:11:05;100320.63;;;12.65;80.44
42761;BME280;31672;47.638;19.026;2024-02-28T16:16:09;100333.78;;;12.43;81.09
42761;BME280;31672;47.638;19.026;2024-02-28T16:21:12;100332.44;;;12.16;82.18
42761;BME280;31672;47.638;19.026;2024-02-28T16:26:16;100347.91;;;11.90;83.77
42761;BME280;31672;47.638;19.026;2024-02-28T16:31:20;100347.63;;;11.60;85.09
42761;BME280;31672;47.638;19.026;2024-02-28T16:36:23;100346.19;;;11.33;86.43
42761;BME280;31672;47.638;19.026;2024-02-28T16:41:27;100362.69;;;11.12;87.52
42761;BME280;31672;47.638;19.026;2024-02-28T16:46:31;100362.03;;;10.86;89.23
42761;BME280;31672;47.638;19.026;2024-02-28T16:51:34;100363.66;;;10.62;90.70
42761;BME280;31672;47.638;19.026;2024-02-28T16:56:40;100372.25;;;10.40;92.36
42761;BME280;31672;47.638;19.026;2024-02-28T17:01:44;100371.38;;;10.23;93.73
42761;BME280;31672;47.638;19.026;2024-02-28T17:06:51;100387.91;;;10.09;95.48
42761;BME280;31672;47.638;19.026;2024-02-28T17:11:55;100387.81;;;9.92;96.49
42761;BME280;31672;47.638;19.026;2024-02-28T17:16:58;100389.91;;;9.81;97.68
42761;BME280;31672;47.638;19.026;2024-02-28T17:22:02;100384.69;;;9.63;98.94
42761;BME280;31672;47.638;19.026;2024-02-28T17:27:06;100385.94;;;9.51;100.00
42761;BME280;31672;47.638;19.026;2024-02-28T17:32:10;100389.66;;;9.40;100.00
42761;BME280;31672;47.638;19.026;2024-02-28T17:37:16;100402.34;;;9.28;100.00
42761;BME280;31672;47.638;19.026;2024-02-28T17:42:19;100411.75;;;9.23;100.00
42761;BME280;31672;47.638;19.026;2024-02-28T17:47:23;100404.34;;;9.08;100.00
42761;BME280;31672;47.638;19.026;2024-02-28T17:52:28;100411.75;;;9.05;100.00
42761;BME280;31672;47.638;19.026;2024-02-28T17:57:32;100414.75;;;9.02;100.00
42761;BME280;31672;47.638;19.026;2024-02-28T18:02:41;100409.66;;;8.91;100.00
42761;BME280;31672;47.638;19.026;2024-02-28T18:07:46;100417.22;;;8.85;100.00
42761;BME280;31672;47.638;19.026;2024-02-28T18:12:51;100416.56;;;8.83;100.00
42761;BME280;31672;47.638;19.026;2024-02-28T18:17:54;100402.88;;;8.70;100.00
42761;BME280;31672;47.638;19.026;2024-02-28T18:22:58;100411.53;;;8.63;100.00
42761;BME280;31672;47.638;19.026;2024-02-28T18:28:01;100413.56;;;8.51;100.00
42761;BME280;31672;47.638;19.026;2024-02-28T18:33:05;100414.72;;;8.48;100.00
42761;BME280;31672;47.638;19.026;2024-02-28T18:38:09;100428.78;;;8.49;100.00
42761;BME280;31672;47.638;19.026;2024-02-28T18:43:13;100426.44;;;8.46;100.00
42761;BME280;31672;47.638;19.026;2024-02-28T18:48:21;100433.69;;;8.44;100.00
42761;BME280;31672;47.638;19.026;2024-02-28T18:53:25;100431.22;;;8.32;100.00
42761;BME280;31672;47.638;19.026;2024-02-28T18:58:28;100434.75;;;8.23;100.00
42761;BME280;31672;47.638;19.026;2024-02-28T19:03:32;100444.38;;;8.15;100.00
42761;BME280;31672;47.638;19.026;2024-02-28T19:08:36;100443.31;;;8.08;100.00
42761;BME280;31672;47.638;19.026;2024-02-28T19:13:40;100442.38;;;7.99;100.00
42761;BME280;31672;47.638;19.026;2024-02-28T19:18:45;100447.53;;;7.91;100.00
42761;BME280;31672;47.638;19.026;2024-02-28T19:23:52;100444.91;;;7.91;100.00
42761;BME280;31672;47.638;19.026;2024-02-28T19:28:55;100453.81;;;7.90;100.00
42761;BME280;31672;47.638;19.026;2024-02-28T19:33:59;100451.22;;;7.80;100.00
42761;BME280;31672;47.638;19.026;2024-02-28T19:39:02;100453.59;;;7.73;100.00
42761;BME280;31672;47.638;19.026;2024-02-28T19:44:08;100472.66;;;7.67;100.00
42761;BME280;31672;47.638;19.026;2024-02-28T19:49:12;100468.50;;;7.55;100.00
42761;BME280;31672;47.638;19.026;2024-02-28T19:54:18;100468.81;;;7.52;100.00
42761;BME280;31672;47.638;19.026;2024-02-28T19:59:22;100471.34;;;7.44;100.00
42761;BME280;31672;47.638;19.026;2024-02-28T20:04:25;100470.22;;;7.37;100.00
42761;BME280;31672;47.638;19.026;2024-02-28T20:09:29;100471.50;;;7.33;100.00
42761;BME280;31672;47.638;19.026;2024-02-28T20:14:38;100483.56;;;7.25;100.00
42761;BME280;31672;47.638;19.026;2024-02-28T20:19:42;100480.81;;;7.17;100.00
42761;BME280;31672;47.638;19.026;2024-02-28T20:24:46;100478.72;;;7.11;100.00
42761;BME280;31672;47.638;19.026;2024-02-28T20:29:50;100481.75;;;7.07;100.00
42761;BME280;31672;47.638;19.026;2024-02-28T20:34:53;100495.13;;;7.05;100.00
42761;BME280;31672;47.638;19.026;2024-02-28T20:39:57;100492.19;;;6.98;100.00
42761;BME280;31672;47.638;19.026;2024-02-28T20:45:02;100496.06;;;6.94;100.00
42761;BME280;31672;47.638;19.026;2024-02-28T20:50:09;100507.47;;;6.85;100.00
42761;BME280;31672;47.638;19.026;2024-02-28T20:55:12;100493.25;;;6.77;100.00
42761;BME280;31672;47.638;19.026;2024-02-28T21:00:16;100499.09;;;6.70;100.00
42761;BME280;31672;47.638;19.026;2024-02-28T21:05:19;100496.00;;;6.65;100.00
42761;BME280;31672;47.638;19.026;2024-02-28T21:10:23;100492.97;;;6.60;100.00
42761;BME280;31672;47.638;19.026;2024-02-28T21:15:27;100488.09;;;6.56;100.00
42761;BME280;31672;47.638;19.026;2024-02-28T21:20:31;100485.84;;;6.51;100.00
42761;BME280;31672;47.638;19.026;2024-02-28T21:25:35;100481.25;;;6.43;100.00
42761;BME280;31672;47.638;19.026;2024-02-28T21:30:39;100498.75;;;6.44;100.00
42761;BME280;31672;47.638;19.026;2024-02-28T21:35:42;100497.63;;;6.37;100.00
42761;BME280;31672;47.638;19.026;2024-02-28T21:40:47;100493.44;;;6.35;100.00
42761;BME280;31672;47.638;19.026;2024-02-28T21:45:50;100493.72;;;6.32;100.00
42761;BME280;31672;47.638;19.026;2024-02-28T21:50:54;100483.69;;;6.26;100.00
42761;BME280;31672;47.638;19.026;2024-02-28T21:55:57;100493.97;;;6.29;100.00
42761;BME280;31672;47.638;19.026;2024-02-28T22:01:00;100498.53;;;6.27;100.00
42761;BME280;31672;47.638;19.026;2024-02-28T22:06:05;100489.50;;;6.20;100.00
42761;BME280;31672;47.638;19.026;2024-02-28T22:11:13;100495.59;;;6.20;100.00
42761;BME280;31672;47.638;19.026;2024-02-28T22:16:16;100502.09;;;6.16;100.00
42761;BME280;31672;47.638;19.026;2024-02-28T22:21:20;100494.16;;;6.06;100.00
42761;BME280;31672;47.638;19.026;2024-02-28T22:26:23;100495.63;;;5.99;100.00
42761;BME280;31672;47.638;19.026;2024-02-28T22:31:27;100501.44;;;5.93;100.00
42761;BME280;31672;47.638;19.026;2024-02-28T22:36:31;100502.88;;;5.86;100.00
42761;BME280;31672;47.638;19.026;2024-02-28T22:41:34;100509.50;;;5.80;100.00
42761;BME280;31672;47.638;19.026;2024-02-28T22:46:38;100513.50;;;5.75;100.00
42761;BME280;31672;47.638;19.026;2024-02-28T22:51:41;100513.06;;;5.70;100.00
42761;BME280;31672;47.638;19.026;2024-02-28T22:56:45;100515.97;;;5.67;100.00
42761;BME280;31672;47.638;19.026;2024-02-28T23:01:51;100502.59;;;5.58;100.00
42761;BME280;31672;47.638;19.026;2024-02-28T23:06:57;100513.66;;;5.52;100.00
42761;BME280;31672;47.638;19.026;2024-02-28T23:12:00;100512.47;;;5.45;100.00
42761;BME280;31672;47.638;19.026;2024-02-28T23:17:05;100502.69;;;5.36;100.00
42761;BME280;31672;47.638;19.026;2024-02-28T23:22:10;100503.91;;;5.32;100.00
42761;BME280;31672;47.638;19.026;2024-02-28T23:27:14;100497.44;;;5.36;100.00
42761;BME280;31672;47.638;19.026;2024-02-28T23:32:19;100497.06;;;5.41;100.00
42761;BME280;31672;47.638;19.026;2024-02-28T23:37:22;100497.28;;;5.37;100.00
42761;BME280;31672;47.638;19.026;2024-02-28T23:42:27;100494.09;;;5.34;100.00
42761;BME280;31672;47.638;19.026;2024-02-28T23:47:31;100500.63;;;5.40;100.00
42761;BME280;31672;47.638;19.026;2024-02-28T23:52:35;100512.72;;;5.42;100.00
42761;BME280;31672;47.638;19.026;2024-02-28T23:57:41;100506.31;;;5.35;100.00
